createdAt,value
2019-02-12T00:02:27.184Z,23.70
2019-02-12T00:04:59.551Z,23.60
2019-02-12T00:07:33.103Z,23.80
2019-02-12T00:10:06.221Z,24.00
2019-02-12T00:12:39.023Z,23.80
2019-02-12T00:15:11.624Z,23.90
2019-02-12T00:17:44.174Z,24.10
2019-02-12T00:20:16.574Z,24.10
2019-02-12T00:22:48.765Z,24.20
2019-02-12T00:25:21.093Z,24.40
2019-02-12T00:27:53.462Z,24.50
2019-02-12T00:30:26.007Z,24.30
2019-02-12T00:32:58.286Z,24.20
2019-02-12T00:35:30.615Z,24.40
2019-02-12T00:38:03.023Z,24.50
2019-02-12T00:40:35.428Z,24.30
2019-02-12T00:43:08.312Z,24.50
2019-02-12T00:45:40.734Z,24.70
2019-02-12T00:48:13.059Z,24.70
2019-02-12T00:50:45.487Z,25.00
2019-02-12T00:53:17.710Z,24.90
2019-02-12T00:55:52.079Z,25.10
2019-02-12T00:58:24.461Z,25.30
2019-02-12T01:00:56.662Z,25.40
2019-02-12T01:03:29.430Z,25.40
2019-02-12T01:06:02.356Z,25.50
2019-02-12T01:08:34.622Z,25.80
2019-02-12T01:11:07.208Z,25.80
2019-02-12T01:13:39.523Z,25.80
2019-02-12T01:16:11.638Z,25.90
2019-02-12T01:18:43.985Z,26.00
2019-02-12T01:21:35.712Z,26.20
2019-02-12T01:24:08.238Z,26.30
2019-02-12T01:26:40.630Z,26.40
2019-02-12T01:29:13.071Z,26.40
2019-02-12T01:31:45.268Z,26.50
2019-02-12T01:34:17.586Z,26.60
2019-02-12T01:36:50.694Z,26.70
2019-02-12T01:39:24.103Z,26.80
2019-02-12T01:41:56.656Z,27.00
2019-02-12T01:44:28.814Z,27.00
2019-02-12T01:47:20.424Z,26.70
2019-02-12T01:49:52.754Z,27.10
2019-02-12T01:52:25.520Z,27.20
2019-02-12T01:54:58.087Z,27.30
2019-02-12T01:57:30.608Z,27.30
2019-02-12T02:00:04.080Z,27.50
2019-02-12T02:02:37.294Z,27.80
2019-02-12T02:05:11.325Z,27.80
2019-02-12T02:07:43.609Z,27.70
2019-02-12T02:10:18.229Z,27.60
2019-02-12T02:12:50.497Z,27.80
2019-02-12T02:15:22.723Z,28.10
2019-02-12T02:17:56.370Z,28.10
2019-02-12T02:20:28.975Z,28.10
2019-02-12T02:23:01.363Z,28.10
2019-02-12T02:25:33.752Z,28.40
2019-02-12T02:28:06.792Z,28.40
2019-02-12T02:30:39.371Z,28.40
2019-02-12T02:33:11.987Z,28.40
2019-02-12T02:35:44.499Z,28.80
2019-02-12T02:38:16.957Z,29.10
2019-02-12T02:40:49.387Z,29.10
2019-02-12T02:43:21.468Z,29.00
2019-02-12T02:45:53.701Z,29.20
2019-02-12T02:48:25.789Z,29.20
2019-02-12T02:51:11.346Z,29.00
2019-02-12T02:53:43.682Z,29.10
2019-02-12T02:56:15.908Z,28.90
2019-02-12T02:58:48.622Z,29.00
2019-02-12T03:01:20.735Z,29.40
2019-02-12T03:03:53.133Z,29.70
2019-02-12T03:06:25.342Z,29.70
2019-02-12T03:09:09.451Z,30.00
2019-02-12T03:11:42.264Z,29.70
2019-02-12T03:14:14.783Z,30.10
2019-02-12T03:16:53.530Z,30.30
2019-02-12T03:19:25.843Z,30.70
2019-02-12T03:22:03.611Z,30.80
2019-02-12T03:24:31.468Z,31.00
2019-02-12T03:27:04.149Z,31.20
2019-02-12T03:29:36.328Z,31.10
2019-02-12T03:32:08.656Z,31.30
2019-02-12T03:34:40.975Z,31.50
2019-02-12T03:37:24.473Z,31.70
2019-02-12T03:39:57.571Z,31.30
2019-02-12T03:42:29.793Z,31.40
2019-02-12T03:45:02.053Z,31.30
2019-02-12T03:47:34.164Z,31.10
2019-02-12T03:50:18.604Z,30.90
2019-02-12T03:52:50.826Z,31.40
2019-02-12T03:55:23.115Z,31.60
2019-02-12T03:57:56.058Z,31.80
2019-02-12T04:00:28.465Z,31.10
2019-02-12T04:03:03.125Z,31.50
2019-02-12T04:05:37.213Z,31.90
2019-02-12T04:08:09.914Z,32.10
2019-02-12T04:10:42.469Z,32.10
2019-02-12T04:13:15.199Z,31.70
2019-02-12T04:15:59.467Z,32.40
2019-02-12T04:18:31.590Z,32.20
2019-02-12T04:21:03.956Z,32.20
2019-02-12T04:23:36.505Z,32.60
2019-02-12T04:26:27.700Z,32.90
2019-02-12T04:29:00.141Z,32.20
2019-02-12T04:31:33.308Z,32.90
2019-02-12T04:34:05.659Z,33.00
2019-02-12T04:36:37.820Z,33.20
2019-02-12T04:39:10.405Z,33.10
2019-02-12T04:41:42.844Z,33.20
2019-02-12T04:44:17.467Z,33.00
2019-02-12T04:46:50.449Z,32.30
2019-02-12T04:49:22.612Z,31.90
2019-02-12T04:51:54.774Z,32.10
2019-02-12T04:54:27.501Z,32.40
2019-02-12T04:57:00.103Z,32.30
2019-02-12T04:59:32.553Z,32.90
2019-02-12T05:02:04.848Z,33.40
2019-02-12T05:04:37.235Z,33.90
2019-02-12T05:07:09.572Z,34.00
2019-02-12T05:09:44.108Z,33.70
2019-02-12T05:12:18.350Z,34.00
2019-02-12T05:14:50.527Z,34.10
2019-02-12T05:17:36.016Z,33.40
2019-02-12T05:20:20.783Z,33.40
2019-02-12T05:22:53.030Z,34.00
2019-02-12T05:25:25.149Z,34.20
2019-02-12T05:27:57.329Z,34.40
2019-02-12T05:30:30.709Z,34.30
2019-02-12T05:33:04.144Z,33.80
2019-02-12T05:35:39.497Z,34.00
2019-02-12T05:38:12.018Z,34.10
2019-02-12T05:40:44.108Z,34.70
2019-02-12T05:43:28.873Z,34.30
2019-02-12T05:46:14.210Z,34.20
2019-02-12T05:48:46.848Z,33.70
2019-02-12T05:51:19.262Z,33.50
2019-02-12T05:53:51.594Z,33.90
2019-02-12T05:56:23.850Z,34.10
2019-02-12T05:58:56.454Z,34.70
2019-02-12T06:01:28.700Z,35.20
2019-02-12T06:04:00.997Z,35.20
2019-02-12T06:06:33.422Z,34.90
2019-02-12T06:09:06.228Z,34.50
2019-02-12T06:11:38.841Z,35.10
2019-02-12T06:14:11.142Z,35.20
2019-02-12T06:16:43.664Z,35.50
2019-02-12T06:19:15.853Z,35.40
2019-02-12T06:21:48.476Z,35.30
2019-02-12T06:24:20.558Z,35.80
2019-02-12T06:26:53.607Z,35.60
2019-02-12T06:29:25.823Z,35.10
2019-02-12T06:32:10.876Z,34.70
2019-02-12T06:34:45.308Z,35.10
2019-02-12T06:37:18.051Z,35.80
2019-02-12T06:40:02.637Z,35.70
2019-02-12T06:42:34.908Z,35.90
2019-02-12T06:45:09.622Z,35.60
2019-02-12T06:47:41.832Z,35.90
2019-02-12T06:50:15.305Z,36.20
2019-02-12T06:52:47.420Z,35.80
2019-02-12T06:55:19.571Z,35.00
2019-02-12T06:57:51.954Z,34.60
2019-02-12T07:00:24.483Z,34.70
2019-02-12T07:02:59.495Z,34.90
2019-02-12T07:05:31.868Z,34.80
2019-02-12T07:08:07.213Z,35.00
2019-02-12T07:10:39.627Z,35.50
2019-02-12T07:13:14.156Z,35.20
2019-02-12T07:15:46.512Z,34.40
2019-02-12T07:18:21.155Z,35.20
2019-02-12T07:20:55.792Z,35.10
2019-02-12T07:23:30.398Z,35.60
2019-02-12T07:26:05.056Z,35.80
2019-02-12T07:28:39.510Z,36.40
2019-02-12T07:31:14.296Z,36.50
2019-02-12T07:33:48.729Z,36.20
2019-02-12T07:36:23.580Z,36.10
2019-02-12T07:38:58.461Z,36.30
2019-02-12T07:41:33.011Z,36.20
2019-02-12T07:44:08.585Z,36.10
2019-02-12T07:46:43.143Z,35.40
2019-02-12T07:49:36.155Z,35.60
2019-02-12T07:52:10.939Z,35.50
2019-02-12T07:54:45.518Z,36.30
2019-02-12T07:57:20.416Z,36.20
2019-02-12T07:59:55.158Z,36.10
2019-02-12T08:02:38.227Z,36.10
2019-02-12T08:05:30.576Z,36.60
2019-02-12T08:08:16.375Z,36.80
2019-02-12T08:10:50.925Z,36.30
2019-02-12T08:13:25.544Z,36.50
2019-02-12T08:15:59.973Z,36.00
2019-02-12T08:18:34.769Z,36.40
2019-02-12T08:21:09.865Z,36.30
2019-02-12T08:23:44.429Z,36.40
2019-02-12T08:26:18.868Z,36.50
2019-02-12T08:28:53.465Z,36.00
2019-02-12T08:31:28.246Z,36.00
2019-02-12T08:34:03.416Z,35.90
2019-02-12T08:36:56.148Z,36.30
2019-02-12T08:39:42.438Z,36.50
2019-02-12T08:42:17.229Z,35.20
2019-02-12T08:44:51.836Z,35.90
2019-02-12T08:47:26.332Z,35.80
2019-02-12T08:50:00.837Z,35.80
2019-02-12T08:52:35.987Z,35.60
2019-02-12T08:55:37.578Z,35.30
2019-02-12T08:58:12.069Z,35.60
2019-02-12T09:00:57.837Z,35.70
2019-02-12T09:03:33.893Z,35.70
2019-02-12T09:06:08.442Z,35.50
2019-02-12T09:08:43.527Z,35.70
2019-02-12T09:11:29.470Z,35.90
2019-02-12T09:14:04.193Z,35.60
2019-02-12T09:16:39.075Z,35.60
2019-02-12T09:19:13.628Z,35.60
2019-02-12T09:21:49.293Z,35.30
2019-02-12T09:24:24.232Z,35.30
2019-02-12T09:26:58.722Z,35.00
2019-02-12T09:29:33.293Z,35.10
2019-02-12T09:32:07.759Z,35.30
2019-02-12T09:34:43.752Z,34.90
2019-02-12T09:37:18.234Z,34.60
2019-02-12T09:40:04.118Z,35.00
2019-02-12T09:42:38.761Z,35.20
2019-02-12T09:45:13.454Z,35.20
2019-02-12T09:47:48.200Z,35.10
2019-02-12T09:50:22.668Z,35.10
2019-02-12T09:52:57.150Z,34.80
2019-02-12T09:55:31.775Z,34.50
2019-02-12T09:58:06.337Z,34.40
2019-02-12T10:00:41.027Z,34.20
2019-02-12T10:03:15.695Z,34.40
2019-02-12T10:06:08.754Z,34.40
2019-02-12T10:08:44.095Z,34.40
2019-02-12T10:11:18.911Z,34.30
2019-02-12T10:13:53.833Z,34.30
2019-02-12T10:16:28.305Z,34.20
2019-02-12T10:19:02.927Z,34.10
2019-02-12T10:21:38.966Z,33.90
2019-02-12T10:24:19.640Z,33.90
2019-02-12T10:26:49.596Z,33.70
2019-02-12T10:29:24.248Z,33.50
2019-02-12T10:32:15.086Z,33.40
2019-02-12T10:34:47.457Z,33.40
2019-02-12T10:37:19.589Z,33.20
2019-02-12T10:39:52.086Z,33.10
2019-02-12T10:42:24.226Z,32.90
2019-02-12T10:44:56.590Z,32.80
2019-02-12T10:47:29.068Z,32.90
2019-02-12T10:50:01.729Z,32.90
2019-02-12T10:52:34.708Z,32.80
2019-02-12T10:55:08.143Z,32.80
2019-02-12T10:57:40.447Z,32.70
2019-02-12T11:00:14.746Z,32.50
2019-02-12T11:02:47.251Z,32.30
2019-02-12T11:05:20.322Z,32.30
2019-02-12T11:07:52.743Z,32.20
2019-02-12T11:10:25.785Z,32.20
2019-02-12T11:12:58.214Z,32.10
2019-02-12T11:15:30.645Z,32.00
2019-02-12T11:18:02.947Z,31.90
2019-02-12T11:20:36.039Z,31.90
2019-02-12T11:23:08.611Z,31.90
2019-02-12T11:25:41.338Z,31.80
2019-02-12T11:28:13.651Z,31.50
2019-02-12T11:30:46.000Z,31.30
2019-02-12T11:33:18.261Z,31.50
2019-02-12T11:35:50.900Z,31.30
2019-02-12T11:38:23.419Z,31.20
2019-02-12T11:40:56.035Z,31.10
2019-02-12T11:43:28.253Z,31.00
2019-02-12T11:46:00.729Z,31.00
2019-02-12T11:48:33.167Z,31.20
2019-02-12T11:51:05.830Z,31.00
2019-02-12T11:53:38.338Z,30.90
2019-02-12T11:56:10.520Z,30.80
2019-02-12T11:58:43.259Z,30.90
2019-02-12T12:01:16.677Z,30.80
2019-02-12T12:03:49.113Z,30.60
2019-02-12T12:06:21.756Z,30.50
2019-02-12T12:08:54.322Z,30.40
2019-02-12T12:11:26.977Z,30.20
2019-02-12T12:13:59.710Z,30.20
2019-02-12T12:16:32.561Z,30.10
2019-02-12T12:19:05.418Z,29.90
2019-02-12T12:21:37.659Z,30.00
2019-02-12T12:24:10.099Z,30.00
2019-02-12T12:26:42.426Z,30.00
2019-02-12T12:29:27.372Z,30.00
2019-02-12T12:31:59.642Z,30.00
2019-02-12T12:34:32.132Z,29.80
2019-02-12T12:37:04.875Z,29.60
2019-02-12T12:39:37.203Z,29.80
2019-02-12T12:42:09.804Z,29.70
2019-02-12T12:44:43.134Z,29.70
2019-02-12T12:47:15.637Z,29.60
2019-02-12T12:49:48.148Z,29.60
2019-02-12T12:52:21.194Z,29.60
2019-02-12T12:54:59.766Z,29.50
2019-02-12T12:57:27.148Z,29.50
2019-02-12T12:59:59.478Z,29.50
2019-02-12T13:02:31.799Z,29.30
2019-02-12T13:05:04.515Z,29.30
2019-02-12T13:07:36.997Z,29.40
2019-02-12T13:10:11.982Z,29.30
2019-02-12T13:13:04.805Z,29.20
2019-02-12T13:15:38.554Z,29.10
2019-02-12T13:18:10.777Z,29.00
2019-02-12T13:20:43.365Z,28.90
2019-02-12T13:23:16.126Z,29.00
2019-02-12T13:25:48.357Z,28.90
2019-02-12T13:28:20.514Z,28.70
2019-02-12T13:30:52.844Z,28.50
2019-02-12T13:33:26.528Z,28.60
2019-02-12T13:35:58.683Z,28.60
2019-02-12T13:38:30.852Z,28.50
2019-02-12T13:41:03.087Z,28.50
2019-02-12T13:43:35.540Z,28.80
2019-02-12T13:46:07.658Z,28.80
2019-02-12T13:48:40.260Z,28.80
2019-02-12T13:51:12.387Z,28.70
2019-02-12T13:53:44.638Z,28.70
2019-02-12T13:56:17.059Z,28.80
2019-02-12T13:58:49.438Z,28.60
2019-02-12T14:01:21.806Z,28.50
2019-02-12T14:03:54.185Z,28.50
2019-02-12T14:06:26.688Z,28.20
2019-02-12T14:08:58.873Z,28.00
2019-02-12T14:11:31.452Z,27.80
2019-02-12T14:14:05.079Z,27.80
2019-02-12T14:16:37.263Z,28.10
2019-02-12T14:19:10.012Z,28.30
2019-02-12T14:21:42.611Z,28.30
2019-02-12T14:24:15.423Z,28.20
2019-02-12T14:26:47.528Z,28.10
2019-02-12T14:29:20.042Z,28.20
2019-02-12T14:31:53.207Z,28.20
2019-02-12T14:34:25.709Z,28.20
2019-02-12T14:36:58.763Z,28.00
2019-02-12T14:39:30.948Z,28.00
2019-02-12T14:42:03.451Z,28.10
2019-02-12T14:44:36.594Z,28.10
2019-02-12T14:47:09.054Z,28.00
2019-02-12T14:49:41.753Z,27.90
2019-02-12T14:52:14.071Z,27.70
2019-02-12T14:54:47.201Z,27.70
2019-02-12T14:57:19.367Z,27.80
2019-02-12T14:59:52.392Z,27.80
2019-02-12T15:02:24.814Z,27.90
2019-02-12T15:05:00.548Z,27.90
2019-02-12T15:07:31.360Z,27.80
2019-02-12T15:10:03.595Z,27.80
2019-02-12T15:12:35.821Z,27.80
2019-02-12T15:15:10.539Z,27.80
2019-02-12T15:17:43.214Z,27.80
2019-02-12T15:20:16.134Z,27.90
2019-02-12T15:22:48.356Z,27.80
2019-02-12T15:25:20.508Z,27.70
2019-02-12T15:27:52.987Z,27.60
2019-02-12T15:30:25.292Z,27.70
2019-02-12T15:32:57.611Z,27.70
2019-02-12T15:35:29.935Z,27.60
2019-02-12T15:38:02.428Z,27.60
2019-02-12T15:40:34.683Z,27.60
2019-02-12T15:43:06.807Z,27.60
2019-02-12T15:45:39.454Z,27.60
2019-02-12T15:48:11.969Z,27.70
2019-02-12T15:50:44.276Z,27.60
2019-02-12T15:53:16.410Z,27.60
2019-02-12T15:55:51.338Z,27.60
2019-02-12T15:58:22.532Z,27.50
2019-02-12T16:00:54.874Z,27.40
2019-02-12T16:03:27.130Z,27.40
2019-02-12T16:05:59.768Z,27.40
2019-02-12T16:08:32.151Z,27.40
2019-02-12T16:11:04.636Z,27.30
2019-02-12T16:13:37.330Z,27.30
2019-02-12T16:16:09.966Z,27.30
2019-02-12T16:18:43.435Z,27.30
2019-02-12T16:21:16.050Z,27.30
2019-02-12T16:23:48.302Z,27.30
2019-02-12T16:26:20.774Z,27.20
2019-02-12T16:28:53.044Z,27.20
2019-02-12T16:31:25.767Z,27.10
2019-02-12T16:33:58.269Z,27.10
2019-02-12T16:36:30.652Z,27.00
2019-02-12T16:39:03.100Z,27.10
2019-02-12T16:41:37.073Z,27.10
2019-02-12T16:44:12.187Z,27.10
2019-02-12T16:46:44.604Z,27.00
2019-02-12T16:49:16.967Z,27.00
2019-02-12T16:51:49.464Z,27.00
2019-02-12T16:54:22.103Z,26.90
2019-02-12T16:56:54.392Z,26.90
2019-02-12T16:59:27.127Z,26.80
2019-02-12T17:01:59.732Z,26.80
2019-02-12T17:04:32.015Z,26.70
2019-02-12T17:07:04.206Z,26.80
2019-02-12T17:09:36.776Z,26.80
2019-02-12T17:12:09.080Z,26.80
2019-02-12T17:14:41.819Z,26.80
2019-02-12T17:17:14.280Z,26.80
2019-02-12T17:19:46.979Z,26.70
2019-02-12T17:22:19.232Z,26.70
2019-02-12T17:24:52.107Z,26.70
2019-02-12T17:27:24.465Z,26.70
2019-02-12T17:29:57.230Z,26.60
2019-02-12T17:32:30.527Z,26.60
2019-02-12T17:35:02.822Z,26.50
2019-02-12T17:37:35.137Z,26.50
2019-02-12T17:40:10.539Z,26.50
2019-02-12T17:42:42.957Z,26.50
2019-02-12T17:45:16.888Z,26.50
2019-02-12T17:47:49.355Z,26.50
2019-02-12T17:50:21.999Z,26.40
2019-02-12T17:52:54.220Z,26.40
2019-02-12T17:55:26.834Z,26.40
2019-02-12T17:57:59.372Z,26.40
2019-02-12T18:00:32.984Z,26.30
2019-02-12T18:03:05.137Z,26.20
2019-02-12T18:05:37.455Z,26.20
2019-02-12T18:08:09.563Z,26.20
2019-02-12T18:10:42.086Z,26.20
2019-02-12T18:13:14.314Z,26.20
2019-02-12T18:15:46.645Z,26.20
2019-02-12T18:28:55.404Z,26.10
2019-02-12T18:31:28.518Z,26.10
2019-02-12T18:34:01.174Z,25.90
2019-02-12T18:36:33.524Z,25.80
2019-02-12T18:39:08.912Z,25.80
2019-02-12T18:41:41.443Z,25.80
2019-02-12T18:44:13.905Z,25.70
2019-02-12T18:46:46.120Z,25.70
2019-02-12T18:49:18.511Z,25.80
2019-02-12T18:51:50.931Z,25.70
2019-02-12T18:54:23.770Z,25.90
2019-02-12T18:56:56.075Z,25.90
2019-02-12T18:59:28.861Z,25.80
2019-02-12T19:02:01.796Z,25.80
2019-02-12T19:04:34.533Z,25.70
2019-02-12T19:07:07.063Z,25.70
2019-02-12T19:09:39.704Z,25.60
2019-02-12T19:12:11.982Z,25.60
2019-02-12T19:14:44.258Z,25.50
2019-02-12T19:17:16.613Z,25.50
2019-02-12T19:19:49.228Z,25.50
2019-02-12T19:22:23.514Z,25.50
2019-02-12T19:24:55.713Z,25.50
2019-02-12T19:27:28.091Z,25.50
2019-02-12T19:30:00.536Z,25.40
2019-02-12T19:32:33.930Z,25.40
2019-02-12T19:35:07.618Z,25.50
2019-02-12T19:37:39.864Z,25.60
2019-02-12T19:40:13.737Z,25.60
2019-02-12T19:42:46.353Z,25.10
2019-02-12T19:45:19.750Z,25.10
2019-02-12T19:47:52.216Z,25.20
2019-02-12T19:50:24.666Z,25.30
2019-02-12T19:52:56.998Z,25.20
2019-02-12T19:55:29.310Z,25.10
2019-02-12T19:58:01.617Z,25.00
2019-02-12T20:00:33.958Z,25.00
2019-02-12T20:03:06.622Z,25.10
2019-02-12T20:05:39.470Z,25.10
2019-02-12T20:08:11.678Z,25.20
2019-02-12T20:10:44.172Z,25.00
2019-02-12T20:13:16.987Z,24.90
2019-02-12T20:15:49.460Z,24.90
2019-02-12T20:18:21.857Z,24.90
2019-02-12T20:20:54.297Z,24.90
2019-02-12T20:23:26.580Z,24.90
2019-02-12T20:25:59.991Z,24.90
2019-02-12T20:28:32.191Z,24.90
2019-02-12T20:31:04.516Z,24.80
2019-02-12T20:33:36.719Z,24.90
2019-02-12T20:36:09.374Z,24.80
2019-02-12T20:38:41.739Z,24.90
2019-02-12T20:41:14.230Z,24.90
2019-02-12T20:43:46.535Z,24.80
2019-02-12T20:46:18.864Z,24.80
2019-02-12T20:48:51.172Z,24.70
2019-02-12T20:51:23.790Z,24.60
2019-02-12T20:53:56.264Z,24.50
2019-02-12T20:56:29.397Z,24.50
2019-02-12T20:59:01.711Z,24.60
2019-02-12T21:01:34.408Z,24.70
2019-02-12T21:04:06.881Z,24.70
2019-02-12T21:06:39.117Z,24.70
2019-02-12T21:09:11.556Z,24.70
2019-02-12T21:11:44.086Z,24.60
2019-02-12T21:14:16.808Z,24.60
2019-02-12T21:16:49.145Z,24.50
2019-02-12T21:19:21.493Z,24.60
2019-02-12T21:21:53.872Z,24.60
2019-02-12T21:24:26.614Z,24.50
2019-02-12T21:26:59.030Z,24.60
2019-02-12T21:29:31.582Z,24.70
2019-02-12T21:32:04.268Z,24.60
2019-02-12T21:34:36.962Z,24.60
2019-02-12T21:37:09.664Z,24.60
2019-02-12T21:39:42.269Z,24.60
2019-02-12T21:42:14.644Z,24.50
2019-02-12T21:44:47.026Z,24.50
2019-02-12T21:47:19.438Z,24.50
2019-02-12T21:49:51.849Z,24.50
2019-02-12T21:52:24.247Z,24.50
2019-02-12T21:54:56.661Z,24.50
2019-02-12T21:57:31.811Z,24.30
2019-02-12T22:00:02.959Z,24.30
2019-02-12T22:02:37.366Z,24.20
2019-02-12T22:05:12.227Z,24.20
2019-02-12T22:07:45.022Z,24.30
2019-02-12T22:10:19.559Z,24.30
2019-02-12T22:12:52.043Z,24.30
2019-02-12T22:15:24.467Z,24.30
2019-02-12T22:17:56.962Z,24.20
2019-02-12T22:20:29.362Z,24.20
2019-02-12T22:23:02.126Z,24.20
2019-02-12T22:25:34.582Z,24.20
2019-02-12T22:28:07.121Z,24.20
2019-02-12T22:30:39.471Z,24.10
2019-02-12T22:33:12.143Z,24.10
2019-02-12T22:35:44.519Z,24.10
2019-02-12T22:38:16.823Z,24.10
2019-02-12T22:40:49.347Z,24.10
2019-02-12T22:43:22.082Z,24.10
2019-02-12T22:45:54.409Z,24.10
2019-02-12T22:48:26.925Z,24.00
2019-02-12T22:50:59.270Z,24.10
2019-02-12T22:53:31.614Z,24.10
2019-02-12T22:56:03.700Z,24.00
2019-02-12T22:58:36.934Z,24.00
2019-02-12T23:01:10.226Z,24.00
2019-02-12T23:03:43.562Z,24.00
2019-02-12T23:06:15.957Z,24.10
2019-02-12T23:08:48.321Z,24.10
2019-02-12T23:11:20.652Z,24.00
2019-02-12T23:13:53.120Z,23.90
2019-02-12T23:16:25.619Z,23.90
2019-02-12T23:18:57.945Z,24.00
2019-02-12T23:21:30.477Z,23.90
2019-02-12T23:24:03.188Z,23.80
2019-02-12T23:26:35.582Z,23.90
2019-02-12T23:29:45.434Z,23.90
2019-02-12T23:32:18.318Z,23.90
2019-02-12T23:34:56.962Z,23.90
2019-02-12T23:37:25.279Z,23.80
2019-02-12T23:39:57.519Z,23.70
2019-02-12T23:42:32.931Z,23.80
2019-02-12T23:45:06.431Z,23.70
2019-02-12T23:47:38.751Z,23.80
2019-02-12T23:50:12.854Z,23.70
2019-02-12T23:52:45.181Z,23.70
2019-02-12T23:55:18.601Z,23.70
2019-02-12T23:57:50.902Z,23.80
